Time;durP1;ratioP1;P1;durP2;ratioP2;P2;SDS_P1;SDS_P2;PMS_P1;PMS_P2;Temp;Humidity;BMP_temperature;BMP_pressure;BME280_temperature;BME280_humidity;BME280_pressure;Samples;Min_cycle;Max_cycle;Signal;HPM_P1;HPM_P2
2023/05/02 00:06:54;;;;;;;9.00;6.17;;;;;;;10.43;100.00;100816.47;31254575;28;20099;-81
2023/05/02 00:21:56;;;;;;;11.87;7.43;;;;;;;10.11;100.00;100827.56;31233037;28;20053;-82
2023/05/02 00:36:58;;;;;;;14.30;7.20;;;;;;;9.83;100.00;100839.31;31240949;28;20075;-82
2023/05/02 00:52:01;;;;;;;11.83;7.30;;;;;;;9.59;100.00;100842.91;31229283;28;20049;-84
2023/05/02 01:07:29;;;;;;;16.50;8.37;;;;;;;9.41;100.00;100861.94;31251400;28;20053;-83
2023/05/02 01:22:33;;;;;;;16.33;8.33;;;;;;;9.30;100.00;100876.69;31219384;28;20060;-76
2023/05/02 01:37:37;;;;;;;20.60;10.53;;;;;;;9.21;100.00;100883.25;31216957;28;20057;-77
2023/05/02 01:52:40;;;;;;;21.37;10.47;;;;;;;9.08;100.00;100898.38;31218535;28;20045;-82
2023/05/02 02:07:43;;;;;;;18.87;10.50;;;;;;;8.96;100.00;100904.22;31199163;28;20049;-82
2023/05/02 02:22:45;;;;;;;23.33;10.50;;;;;;;8.83;100.00;100911.16;31226764;28;20052;-82
2023/05/02 02:38:23;;;;;;;22.03;10.57;;;;;;;8.75;100.00;100942.09;31224697;28;20461;-84
2023/05/02 02:53:33;;;;;;;20.50;10.30;;;;;;;8.72;100.00;100965.31;31212732;28;20050;-83
2023/05/02 03:08:42;;;;;;;27.53;13.70;;;;;;;8.99;100.00;100995.50;31223857;28;20062;-82
2023/05/02 03:23:43;;;;;;;24.63;10.80;;;;;;;9.33;100.00;101004.03;31188364;28;20057;-82
2023/05/02 03:38:45;;;;;;;16.83;9.23;;;;;;;9.83;100.00;101012.88;31234597;28;20083;-81
2023/05/02 03:53:47;;;;;;;16.57;10.50;;;;;;;10.44;100.00;101021.59;31219268;28;20041;-82
2023/05/02 04:08:49;;;;;;;18.13;9.90;;;;;;;11.03;100.00;101043.41;31250845;28;20478;-80
2023/05/02 04:23:51;;;;;;;20.40;10.03;;;;;;;11.74;100.00;101056.44;31258644;28;20446;-81
2023/05/02 04:38:53;;;;;;;18.80;10.27;;;;;;;12.32;100.00;101075.69;31252011;28;20057;-81
2023/05/02 04:53:55;;;;;;;25.33;9.27;;;;;;;12.91;100.00;101087.03;31239445;28;20045;-81
2023/05/02 05:08:58;;;;;;;16.23;7.97;;;;;;;13.64;100.00;101094.53;31243955;28;20057;-80
2023/05/02 05:24:00;;;;;;;11.87;7.57;;;;;;;14.40;100.00;101095.50;31222404;28;20077;-82
2023/05/02 05:39:02;;;;;;;8.23;5.30;;;;;;;15.38;100.00;101101.22;31242206;28;20053;-83
2023/05/02 05:54:04;;;;;;;4.93;2.83;;;;;;;16.06;100.00;101105.84;31217640;28;20046;-83
2023/05/02 06:09:05;;;;;;;5.70;3.17;;;;;;;16.70;100.00;101105.63;31239170;28;20064;-83
2023/05/02 06:24:07;;;;;;;7.20;3.87;;;;;;;17.41;100.00;101101.94;31261384;28;20057;-83
2023/05/02 06:39:10;;;;;;;3.80;2.70;;;;;;;17.62;100.00;101128.69;31236166;28;20248;-82
2023/05/02 06:54:12;;;;;;;9.53;3.10;;;;;;;18.35;100.00;101135.63;31222609;28;20144;-83
2023/05/02 07:09:14;;;;;;;2.83;2.13;;;;;;;18.64;98.68;101151.16;31233558;28;20143;-79
2023/05/02 07:24:15;;;;;;;2.70;2.10;;;;;;;19.26;95.96;101160.19;31223291;28;20123;-78
2023/05/02 07:39:19;;;;;;;4.55;1.88;;;;;;;19.71;75.74;101153.31;31207617;28;20060;-80
2023/05/02 07:54:22;;;;;;;3.03;1.60;;;;;;;19.97;59.21;101157.34;31214696;28;20469;-78
2023/05/02 08:09:23;;;;;;;4.05;1.60;;;;;;;20.26;56.87;101156.91;31211829;28;20059;-80
2023/05/02 08:24:26;;;;;;;2.22;2.00;;;;;;;20.65;48.43;101149.69;31255798;28;20042;-84
2023/05/02 08:39:32;;;;;;;3.45;1.48;;;;;;;21.20;38.92;101146.81;31261611;28;20418;-83
2023/05/02 08:54:50;;;;;;;3.13;1.33;;;;;;;21.75;36.96;101141.75;31250771;28;20041;-88
2023/05/02 09:09:52;;;;;;;1.95;1.00;;;;;;;22.09;40.67;101146.00;31246013;28;20057;-84
2023/05/02 09:24:56;;;;;;;1.23;0.90;;;;;;;22.07;36.84;101145.69;31234663;28;20128;-84
2023/05/02 09:40:06;;;;;;;4.28;1.42;;;;;;;22.78;35.75;101153.06;31240020;28;20507;-84
2023/05/02 09:55:23;;;;;;;4.68;1.60;;;;;;;22.96;36.24;101159.63;31229126;28;20044;-84
2023/05/02 10:10:26;;;;;;;1.70;1.02;;;;;;;22.88;32.84;101161.28;31237900;28;20052;-83
2023/05/02 10:25:29;;;;;;;2.60;1.20;;;;;;;23.34;32.60;101156.72;31241868;28;20045;-86
2023/05/02 10:40:31;;;;;;;;;;;;;;;23.75;33.36;101163.13;31202003;28;20148;-83
2023/05/02 10:55:33;;;;;;;7.38;1.10;;;;;;;24.26;33.79;101153.44;31242110;28;19967;-84
2023/05/02 11:10:35;;;;;;;1.30;0.95;;;;;;;24.00;30.98;101142.25;31218106;28;20502;-83
2023/05/02 11:25:42;;;;;;;1.17;0.82;;;;;;;23.84;30.24;101140.06;31254719;28;20133;-83
2023/05/02 11:40:56;;;;;;;1.42;0.90;;;;;;;21.41;33.73;101134.75;31233948;28;20419;-84
2023/05/02 11:56:01;;;;;;;1.15;0.80;;;;;;;20.38;35.82;101127.66;31254038;28;20045;-85
2023/05/02 12:11:03;;;;;;;2.80;1.48;;;;;;;19.48;38.26;101135.34;31244290;28;20103;-83
2023/05/02 12:26:20;;;;;;;3.80;1.25;;;;;;;19.33;39.03;101106.84;31269533;28;20088;-90
2023/05/02 12:41:36;;;;;;;6.20;1.38;;;;;;;19.02;39.96;101120.63;31267881;28;20065;-80
2023/05/02 12:56:40;;;;;;;1.90;1.02;;;;;;;18.73;40.12;101126.44;31247248;28;20535;-80
2023/05/02 13:11:41;;;;;;;3.05;1.40;;;;;;;18.67;40.83;101123.50;31237292;28;20057;-80
2023/05/02 13:26:50;;;;;;;2.35;1.10;;;;;;;18.53;41.00;101135.00;31281489;28;20109;-86
2023/05/02 13:41:52;;;;;;;6.45;1.40;;;;;;;18.30;42.36;101133.47;31266547;28;20054;-85
2023/05/02 13:56:57;;;;;;;3.65;1.27;;;;;;;18.28;42.67;101135.13;31254836;28;20045;-87
2023/05/02 14:12:00;;;;;;;2.50;1.65;;;;;;;18.22;42.57;101145.13;31286908;28;20050;-88
2023/05/02 14:27:03;;;;;;;1.47;1.20;;;;;;;18.08;44.45;101142.88;31240849;28;20050;-84
2023/05/02 14:42:05;;;;;;;2.00;1.08;;;;;;;17.98;44.81;101140.03;31240643;28;20068;-85
2023/05/02 14:57:08;;;;;;;1.83;1.05;;;;;;;17.83;44.02;101130.75;31245232;28;20467;-80
2023/05/02 15:12:10;;;;;;;8.20;4.95;;;;;;;17.88;45.44;101132.94;31217816;28;20049;-81
2023/05/02 15:27:12;;;;;;;4.95;1.85;;;;;;;17.73;44.54;101140.09;31240989;28;20075;-86
2023/05/02 15:42:14;;;;;;;3.07;1.93;;;;;;;17.88;45.16;101141.19;31228383;28;20612;-80
2023/05/02 15:57:17;;;;;;;3.88;2.00;;;;;;;17.36;47.48;101150.66;31230670;28;20133;-80
2023/05/02 16:12:19;;;;;;;3.07;1.50;;;;;;;17.21;49.05;101159.78;31218168;28;20452;-78
2023/05/02 16:27:23;;;;;;;20.70;11.93;;;;;;;16.97;52.52;101167.53;31225132;28;20401;-81
2023/05/02 16:42:25;;;;;;;10.43;4.97;;;;;;;16.85;56.44;101182.75;31198016;28;20063;-80
2023/05/02 16:57:28;;;;;;;4.27;2.30;;;;;;;16.54;59.44;101185.13;31231168;28;20046;-79
2023/05/02 17:12:30;;;;;;;14.87;7.60;;;;;;;16.38;62.32;101196.16;31205682;28;20054;-79
2023/05/02 17:27:33;;;;;;;13.53;7.80;;;;;;;16.21;64.21;101205.59;31239972;28;20056;-82
2023/05/02 17:42:34;;;;;;;19.23;9.67;;;;;;;16.03;66.94;101215.03;31276702;28;20087;-78
2023/05/02 17:57:41;;;;;;;38.83;21.33;;;;;;;15.94;69.24;101225.06;31305367;28;20076;-88
2023/05/02 18:12:45;;;;;;;9.73;4.73;;;;;;;15.87;71.39;101244.38;31262591;28;20537;-81
2023/05/02 18:27:47;;;;;;;6.80;3.10;;;;;;;15.70;74.29;101235.38;31225701;28;20085;-81
2023/05/02 18:42:50;;;;;;;66.67;29.87;;;;;;;15.53;78.49;101236.53;31205349;28;20056;-82
2023/05/02 18:57:52;;;;;;;11.63;5.20;;;;;;;15.35;82.56;101245.88;31210337;28;20045;-80
2023/05/02 19:12:54;;;;;;;8.53;4.90;;;;;;;15.00;88.91;101235.69;31228444;28;20531;-82
2023/05/02 19:27:56;;;;;;;20.60;11.03;;;;;;;14.83;94.38;101242.28;31211170;28;20528;-83
2023/05/02 19:42:58;;;;;;;14.87;6.17;;;;;;;14.82;99.51;101243.47;31239076;28;20103;-84
2023/05/02 19:58:02;;;;;;;9.97;5.03;;;;;;;14.74;100.00;101248.28;31217445;28;20053;-84
2023/05/02 20:13:04;;;;;;;8.53;4.30;;;;;;;14.47;100.00;101242.91;31226890;28;20061;-84
2023/05/02 20:28:08;;;;;;;7.57;4.83;;;;;;;14.28;100.00;101238.13;31247147;28;20080;-86
2023/05/02 20:43:11;;;;;;;11.23;6.83;;;;;;;14.13;100.00;101247.75;31229329;28;20057;-83
2023/05/02 20:58:15;;;;;;;17.13;9.27;;;;;;;13.96;100.00;101236.69;31297574;28;20083;-90
2023/05/02 21:13:17;;;;;;;17.93;11.57;;;;;;;13.98;100.00;101250.69;31263385;28;20073;-86
2023/05/02 21:28:19;;;;;;;50.43;25.77;;;;;;;13.84;100.00;101245.47;31249053;28;20070;-88
2023/05/02 21:43:20;;;;;;;7.53;4.27;;;;;;;13.82;100.00;101247.06;31230429;28;20187;-87
2023/05/02 21:58:23;;;;;;;10.07;4.70;;;;;;;13.70;100.00;101244.91;31252101;28;20557;-88
2023/05/02 22:13:24;;;;;;;9.47;5.20;;;;;;;13.48;100.00;101247.91;31264443;28;20056;-88
2023/05/02 22:28:26;;;;;;;8.67;4.10;;;;;;;13.58;100.00;101243.50;31258998;28;20050;-86
2023/05/02 22:43:28;;;;;;;11.90;4.77;;;;;;;13.48;100.00;101255.31;31278737;28;20100;-87
2023/05/02 22:58:31;;;;;;;11.00;6.13;;;;;;;13.46;100.00;101258.50;31274815;28;20061;-89
2023/05/02 23:13:33;;;;;;;11.97;5.27;;;;;;;13.22;100.00;101271.25;31284469;28;20526;-87
2023/05/02 23:28:35;;;;;;;8.73;4.30;;;;;;;13.02;100.00;101264.81;31224446;28;20651;-82
2023/05/02 23:43:37;;;;;;;10.63;4.73;;;;;;;12.85;100.00;101273.97;31228280;28;20050;-82
2023/05/02 23:58:39;;;;;;;11.67;5.23;;;;;;;12.81;100.00;101267.78;31240583;28;20053;-80
